QTR39C EDDF-OTHH
Flight info
| Callsign | QTR39C |
|---|---|
| Flight time | N/A |
| Altitude | 37000 |
| Route | CINDY6F/25L CINDY Z74 LAMPU DCT NOMBO Y161 MAH DCT VAVOR DCT RADIZ/N0485F390 DCT NEMEK DCT VRANA DCT DIMIS DCT IPTES UL604 SALUN N705 MMA P751 DASUM Y234 FYM M872 HGD/N0485F410 M872 WEJ L604 GAS G662 KSA N687 KINIB Z511 GISRA L681 ORLEK |
| Aircraft | A359/H-SABDE1E3GHIJ1J3J4J5M1P2RWXYZ/LB2D1G1 |
Departure
| Time | 2026-05-07 07:01 |
|---|---|
| Airport | Frankfurt Main Airport (EDDF) |
Arrival
| Time | N/A |
|---|---|
| Airport | Hamad International Airport (OTHH) |
| Time | Latitude | Longitude | Altitude | Speed | Heading |
|---|---|---|---|---|---|
| 2026-05-07 06:32 | 50.02992 | 8.57582 | 362 ft | 0 kts | 25° |
| 2026-05-07 06:50 | 50.02991 | 8.57580 | 368 ft | 2 kts | 25° |
| 2026-05-07 06:51 | 50.02967 | 8.57564 | 362 ft | 4 kts | 24° |
| 2026-05-07 06:51 | 50.02942 | 8.57546 | 360 ft | 4 kts | 25° |
| 2026-05-07 06:51 | 50.02929 | 8.57536 | 362 ft | 2 kts | 26° |
| 2026-05-07 06:52 | 50.02916 | 8.57527 | 367 ft | 4 kts | 5° |
| 2026-05-07 06:52 | 50.02899 | 8.57532 | 368 ft | 4 kts | 311° |
| 2026-05-07 06:52 | 50.02889 | 8.57558 | 365 ft | 4 kts | 288° |
| 2026-05-07 06:52 | 50.02885 | 8.57583 | 363 ft | 4 kts | 279° |
| 2026-05-07 06:53 | 50.02883 | 8.57618 | 359 ft | 4 kts | 268° |
| 2026-05-07 06:53 | 50.02883 | 8.57645 | 359 ft | 4 kts | 269° |
| 2026-05-07 06:53 | 50.02883 | 8.57656 | 362 ft | 0 kts | 272° |
| 2026-05-07 06:56 | 50.02884 | 8.57646 | 359 ft | 4 kts | 272° |
| 2026-05-07 06:56 | 50.02891 | 8.57571 | 366 ft | 11 kts | 284° |
| 2026-05-07 06:56 | 50.02927 | 8.57429 | 359 ft | 17 kts | 294° |
| 2026-05-07 06:57 | 50.02980 | 8.57250 | 361 ft | 20 kts | 295° |
| 2026-05-07 06:57 | 50.03042 | 8.57042 | 363 ft | 21 kts | 295° |
| 2026-05-07 06:57 | 50.03147 | 8.56906 | 365 ft | 21 kts | 339° |
| 2026-05-07 06:57 | 50.03257 | 8.56869 | 359 ft | 16 kts | 11° |
| 2026-05-07 06:58 | 50.03330 | 8.57015 | 365 ft | 19 kts | 70° |
| 2026-05-07 06:58 | 50.03380 | 8.57229 | 359 ft | 23 kts | 70° |
| 2026-05-07 06:58 | 50.03437 | 8.57469 | 360 ft | 25 kts | 69° |
| 2026-05-07 06:58 | 50.03495 | 8.57708 | 361 ft | 17 kts | 70° |
| 2026-05-07 06:59 | 50.03538 | 8.57890 | 364 ft | 19 kts | 69° |
| 2026-05-07 06:59 | 50.03588 | 8.58100 | 368 ft | 22 kts | 69° |
| 2026-05-07 06:59 | 50.03646 | 8.58341 | 369 ft | 26 kts | 69° |
| 2026-05-07 06:59 | 50.03711 | 8.58612 | 370 ft | 23 kts | 70° |
| 2026-05-07 07:00 | 50.03799 | 8.58715 | 369 ft | 17 kts | 0° |
| 2026-05-07 07:00 | 50.03909 | 8.58668 | 374 ft | 17 kts | 341° |
| 2026-05-07 07:00 | 50.03977 | 8.58554 | 376 ft | 16 kts | 265° |
| 2026-05-07 07:00 | 50.03925 | 8.58322 | 374 ft | 43 kts | 250° |
| 2026-05-07 07:01 | 50.03740 | 8.57557 | 367 ft | 106 kts | 250° |
| 2026-05-07 07:01 | 50.03423 | 8.56220 | 363 ft | 157 kts | 249° |
| 2026-05-07 07:01 | 50.03011 | 8.54535 | 832 ft | 163 kts | 250° |
| 2026-05-07 07:01 | 50.02620 | 8.52868 | 1411 ft | 166 kts | 251° |
| 2026-05-07 07:02 | 50.02026 | 8.51247 | 1725 ft | 183 kts | 231° |
| 2026-05-07 07:02 | 50.00999 | 8.49892 | 1922 ft | 206 kts | 215° |
| 2026-05-07 07:02 | 49.99632 | 8.49098 | 2318 ft | 216 kts | 186° |
| 2026-05-07 07:02 | 49.98163 | 8.49596 | 2798 ft | 222 kts | 150° |
| 2026-05-07 07:03 | 49.97085 | 8.51303 | 3388 ft | 224 kts | 121° |
| 2026-05-07 07:03 | 49.96341 | 8.53431 | 3950 ft | 227 kts | 118° |
| 2026-05-07 07:03 | 49.95532 | 8.55673 | 4177 ft | 249 kts | 120° |
| 2026-05-07 07:03 | 49.94651 | 8.58094 | 4516 ft | 264 kts | 118° |
| 2026-05-07 07:04 | 49.94053 | 8.60804 | 5033 ft | 269 kts | 98° |
| 2026-05-07 07:04 | 49.93888 | 8.63681 | 5638 ft | 273 kts | 93° |
| 2026-05-07 07:04 | 49.93771 | 8.66639 | 6227 ft | 276 kts | 96° |
| 2026-05-07 07:04 | 49.93200 | 8.69488 | 6776 ft | 280 kts | 121° |
| 2026-05-07 07:05 | 49.91879 | 8.71680 | 7368 ft | 280 kts | 143° |
| 2026-05-07 07:05 | 49.90294 | 8.73464 | 7952 ft | 283 kts | 146° |
| 2026-05-07 07:05 | 49.88735 | 8.75357 | 8496 ft | 288 kts | 135° |
| 2026-05-07 07:05 | 49.87551 | 8.77875 | 9061 ft | 291 kts | 121° |
| 2026-05-07 07:06 | 49.86546 | 8.80623 | 9636 ft | 294 kts | 119° |
| 2026-05-07 07:06 | 49.85558 | 8.83407 | 10202 ft | 298 kts | 119° |
| 2026-05-07 07:06 | 49.84531 | 8.86271 | 10487 ft | 311 kts | 120° |
| 2026-05-07 07:06 | 49.83447 | 8.89269 | 10736 ft | 325 kts | 120° |
| 2026-05-07 07:07 | 49.82317 | 8.92387 | 10984 ft | 339 kts | 120° |
| 2026-05-07 07:07 | 49.81139 | 8.95625 | 11235 ft | 352 kts | 120° |
| 2026-05-07 07:07 | 49.79925 | 8.98955 | 11653 ft | 357 kts | 120° |
| 2026-05-07 07:07 | 49.78701 | 9.02325 | 12164 ft | 360 kts | 120° |
| 2026-05-07 07:08 | 49.77465 | 9.05715 | 12684 ft | 363 kts | 120° |
| 2026-05-07 07:08 | 49.76316 | 9.09207 | 13170 ft | 367 kts | 112° |
| 2026-05-07 07:08 | 49.75565 | 9.12992 | 13655 ft | 369 kts | 104° |
| 2026-05-07 07:08 | 49.74890 | 9.16837 | 14109 ft | 372 kts | 109° |
| 2026-05-07 07:09 | 49.73725 | 9.20398 | 14601 ft | 373 kts | 124° |
| 2026-05-07 07:09 | 49.72213 | 9.23594 | 15068 ft | 374 kts | 129° |
| 2026-05-07 07:09 | 49.70519 | 9.26674 | 15502 ft | 377 kts | 132° |
| 2026-05-07 07:09 | 49.68750 | 9.29683 | 15958 ft | 379 kts | 133° |
| 2026-05-07 07:10 | 49.66955 | 9.32686 | 16412 ft | 382 kts | 133° |
| 2026-05-07 07:10 | 49.65152 | 9.35726 | 16848 ft | 384 kts | 133° |
| 2026-05-07 07:10 | 49.63354 | 9.38786 | 17273 ft | 386 kts | 133° |
| 2026-05-07 07:10 | 49.61356 | 9.41528 | 17688 ft | 388 kts | 144° |
| 2026-05-07 07:11 | 49.59138 | 9.43918 | 18106 ft | 390 kts | 147° |
| 2026-05-07 07:11 | 49.56828 | 9.46172 | 18512 ft | 392 kts | 149° |
| 2026-05-07 07:11 | 49.54482 | 9.48332 | 18920 ft | 395 kts | 150° |
| 2026-05-07 07:11 | 49.52134 | 9.50439 | 19307 ft | 397 kts | 150° |
| 2026-05-07 07:12 | 49.49736 | 9.52579 | 19683 ft | 399 kts | 150° |
| 2026-05-07 07:12 | 49.47330 | 9.54734 | 20065 ft | 402 kts | 150° |
| 2026-05-07 07:12 | 49.44912 | 9.56911 | 20433 ft | 403 kts | 150° |
| 2026-05-07 07:12 | 49.42487 | 9.59104 | 20799 ft | 406 kts | 150° |
| 2026-05-07 07:13 | 49.40050 | 9.61314 | 21158 ft | 408 kts | 150° |
| 2026-05-07 07:13 | 49.37601 | 9.63537 | 21518 ft | 410 kts | 150° |
| 2026-05-07 07:13 | 49.35164 | 9.65846 | 21850 ft | 413 kts | 146° |
| 2026-05-07 07:13 | 49.32930 | 9.68622 | 22188 ft | 415 kts | 139° |
| 2026-05-07 07:14 | 49.30801 | 9.71625 | 22536 ft | 417 kts | 137° |
| 2026-05-07 07:14 | 49.28708 | 9.74747 | 22873 ft | 419 kts | 136° |
| 2026-05-07 07:14 | 49.26643 | 9.77911 | 23194 ft | 422 kts | 135° |
| 2026-05-07 07:14 | 49.24573 | 9.81112 | 23520 ft | 423 kts | 135° |
| 2026-05-07 07:15 | 49.22494 | 9.84322 | 23850 ft | 425 kts | 135° |
| 2026-05-07 07:15 | 49.20406 | 9.87528 | 24165 ft | 427 kts | 135° |
| 2026-05-07 07:15 | 49.18305 | 9.90736 | 24487 ft | 429 kts | 136° |
| 2026-05-07 07:15 | 49.16187 | 9.93958 | 24826 ft | 430 kts | 136° |
| 2026-05-07 07:16 | 49.14058 | 9.97184 | 25152 ft | 431 kts | 136° |
| 2026-05-07 07:16 | 49.11920 | 10.00418 | 25451 ft | 433 kts | 136° |
| 2026-05-07 07:16 | 49.09800 | 10.03619 | 25754 ft | 435 kts | 136° |
| 2026-05-07 07:16 | 49.07649 | 10.06865 | 26135 ft | 435 kts | 136° |
| 2026-05-07 07:17 | 49.05493 | 10.10108 | 26478 ft | 436 kts | 137° |
| 2026-05-07 07:17 | 49.03298 | 10.13310 | 26768 ft | 438 kts | 138° |
| 2026-05-07 07:17 | 49.01060 | 10.16468 | 27069 ft | 440 kts | 139° |
| 2026-05-07 07:17 | 48.98797 | 10.19619 | 27403 ft | 441 kts | 139° |
| 2026-05-07 07:18 | 48.96527 | 10.22776 | 27708 ft | 443 kts | 139° |
| 2026-05-07 07:18 | 48.94258 | 10.25942 | 28035 ft | 444 kts | 139° |
| 2026-05-07 07:18 | 48.91975 | 10.29147 | 28326 ft | 446 kts | 139° |
| 2026-05-07 07:18 | 48.89688 | 10.32364 | 28631 ft | 448 kts | 139° |
| 2026-05-07 07:19 | 48.87399 | 10.35587 | 28956 ft | 450 kts | 139° |
| 2026-05-07 07:19 | 48.85099 | 10.38824 | 29260 ft | 451 kts | 139° |
| 2026-05-07 07:19 | 48.82789 | 10.42071 | 29543 ft | 453 kts | 139° |
| 2026-05-07 07:19 | 48.80516 | 10.45405 | 29856 ft | 456 kts | 136° |
| 2026-05-07 07:20 | 48.78320 | 10.48889 | 30140 ft | 458 kts | 135° |
| 2026-05-07 07:20 | 48.76179 | 10.52404 | 30413 ft | 460 kts | 134° |
| 2026-05-07 07:20 | 48.74008 | 10.55989 | 30686 ft | 463 kts | 135° |
| 2026-05-07 07:20 | 48.71825 | 10.59571 | 30924 ft | 465 kts | 135° |
| 2026-05-07 07:21 | 48.67402 | 10.66711 | 30982 ft | 466 kts | 135° |
| 2026-05-07 07:21 | 48.62934 | 10.73821 | 30981 ft | 466 kts | 136° |
| 2026-05-07 07:22 | 48.58457 | 10.80902 | 30981 ft | 466 kts | 136° |
| 2026-05-07 07:22 | 48.54003 | 10.88002 | 30989 ft | 466 kts | 136° |
| 2026-05-07 07:23 | 48.49561 | 10.95108 | 30990 ft | 465 kts | 136° |
| 2026-05-07 07:23 | 48.47331 | 10.98658 | 31116 ft | 467 kts | 136° |
| 2026-05-07 07:23 | 48.45076 | 11.02196 | 31437 ft | 468 kts | 136° |
| 2026-05-07 07:24 | 48.42809 | 11.05718 | 31689 ft | 469 kts | 136° |
| 2026-05-07 07:24 | 48.40534 | 11.09239 | 31922 ft | 470 kts | 137° |
| 2026-05-07 07:24 | 48.38245 | 11.12780 | 32149 ft | 472 kts | 137° |
| 2026-05-07 07:24 | 48.35947 | 11.16335 | 32346 ft | 475 kts | 137° |
| 2026-05-07 07:25 | 48.31335 | 11.23469 | 32791 ft | 477 kts | 137° |
| 2026-05-07 07:25 | 48.29022 | 11.27048 | 32974 ft | 478 kts | 137° |
| 2026-05-07 07:25 | 48.26823 | 11.30814 | 33114 ft | 482 kts | 130° |
| 2026-05-07 07:26 | 48.24927 | 11.34992 | 33315 ft | 486 kts | 125° |
| 2026-05-07 07:26 | 48.23165 | 11.39318 | 33605 ft | 485 kts | 123° |
| 2026-05-07 07:26 | 48.21473 | 11.43641 | 33870 ft | 485 kts | 123° |
| 2026-05-07 07:26 | 48.19785 | 11.48031 | 34171 ft | 484 kts | 123° |
| 2026-05-07 07:27 | 48.18113 | 11.52403 | 34433 ft | 483 kts | 123° |
| 2026-05-07 07:27 | 48.16439 | 11.56767 | 34648 ft | 484 kts | 123° |
| 2026-05-07 07:27 | 48.14753 | 11.61138 | 34867 ft | 484 kts | 123° |
| 2026-05-07 07:27 | 48.13065 | 11.65492 | 35097 ft | 484 kts | 123° |
| 2026-05-07 07:28 | 48.11372 | 11.69842 | 35318 ft | 484 kts | 123° |
| 2026-05-07 07:28 | 48.09670 | 11.74201 | 35525 ft | 484 kts | 123° |
| 2026-05-07 07:28 | 48.07961 | 11.78568 | 35736 ft | 485 kts | 123° |
| 2026-05-07 07:28 | 48.06255 | 11.82920 | 35926 ft | 485 kts | 123° |
| 2026-05-07 07:29 | 48.04546 | 11.87273 | 36123 ft | 485 kts | 123° |
| 2026-05-07 07:29 | 48.02836 | 11.91622 | 36343 ft | 486 kts | 123° |
| 2026-05-07 07:29 | 48.01146 | 11.95916 | 36520 ft | 486 kts | 123° |
| 2026-05-07 07:29 | 47.99428 | 12.00271 | 36695 ft | 486 kts | 123° |
| 2026-05-07 07:30 | 47.97711 | 12.04618 | 36902 ft | 486 kts | 123° |
| 2026-05-07 07:30 | 47.94144 | 12.13192 | 36991 ft | 482 kts | 129° |
| 2026-05-07 07:31 | 47.89563 | 12.20321 | 36989 ft | 474 kts | 141° |
| 2026-05-07 07:31 | 47.84548 | 12.26720 | 36990 ft | 474 kts | 143° |
| 2026-05-07 07:32 | 47.79801 | 12.32581 | 36991 ft | 474 kts | 143° |
| 2026-05-07 07:32 | 47.74730 | 12.38845 | 36999 ft | 474 kts | 143° |
| 2026-05-07 07:33 | 47.69707 | 12.45076 | 36997 ft | 474 kts | 143° |
| 2026-05-07 07:33 | 47.64650 | 12.51350 | 36999 ft | 474 kts | 143° |
| 2026-05-07 07:34 | 47.59648 | 12.57728 | 37000 ft | 475 kts | 140° |
| 2026-05-07 07:34 | 47.54887 | 12.64555 | 37001 ft | 476 kts | 138° |
| 2026-05-07 07:35 | 47.50161 | 12.71426 | 37000 ft | 476 kts | 139° |
| 2026-05-07 07:35 | 47.45399 | 12.78221 | 36999 ft | 476 kts | 139° |
| 2026-05-07 07:36 | 47.40636 | 12.84924 | 37000 ft | 475 kts | 139° |
| 2026-05-07 07:36 | 47.35842 | 12.91631 | 37017 ft | 475 kts | 139° |
| 2026-05-07 07:37 | 47.31042 | 12.98335 | 37013 ft | 475 kts | 140° |
| 2026-05-07 07:37 | 47.26235 | 13.05033 | 37017 ft | 475 kts | 140° |
| 2026-05-07 07:38 | 47.21438 | 13.11702 | 37019 ft | 474 kts | 140° |
| 2026-05-07 07:38 | 47.16623 | 13.18380 | 37019 ft | 476 kts | 140° |
| 2026-05-07 07:39 | 47.11811 | 13.25043 | 37019 ft | 475 kts | 140° |
| 2026-05-07 07:39 | 47.07000 | 13.31676 | 37015 ft | 474 kts | 140° |
| 2026-05-07 07:40 | 47.02991 | 13.37190 | 37002 ft | 475 kts | 140° |
| 2026-05-07 07:40 | 46.97391 | 13.44875 | 36985 ft | 474 kts | 140° |
| 2026-05-07 07:41 | 46.93351 | 13.50406 | 36991 ft | 475 kts | 140° |
| 2026-05-07 07:41 | 46.88551 | 13.56964 | 36989 ft | 474 kts | 140° |
| 2026-05-07 07:42 | 46.83727 | 13.63538 | 36989 ft | 474 kts | 140° |
| 2026-05-07 07:42 | 46.78895 | 13.70104 | 36987 ft | 474 kts | 140° |
| 2026-05-07 07:43 | 46.74239 | 13.76417 | 36990 ft | 474 kts | 140° |
| 2026-05-07 07:43 | 46.69459 | 13.82878 | 37058 ft | 474 kts | 140° |
| 2026-05-07 07:43 | 46.67045 | 13.86134 | 37279 ft | 473 kts | 140° |
| 2026-05-07 07:44 | 46.64628 | 13.89391 | 37498 ft | 473 kts | 140° |
| 2026-05-07 07:44 | 46.62211 | 13.92643 | 37663 ft | 473 kts | 140° |
| 2026-05-07 07:44 | 46.59790 | 13.95896 | 37823 ft | 474 kts | 140° |
| 2026-05-07 07:44 | 46.57366 | 13.99151 | 37962 ft | 474 kts | 140° |
| 2026-05-07 07:45 | 46.54943 | 14.02402 | 38117 ft | 474 kts | 140° |
| 2026-05-07 07:45 | 46.52517 | 14.05653 | 38244 ft | 474 kts | 140° |
| 2026-05-07 07:45 | 46.50092 | 14.08896 | 38385 ft | 475 kts | 140° |
| 2026-05-07 07:45 | 46.47662 | 14.12143 | 38514 ft | 475 kts | 140° |
| 2026-05-07 07:46 | 46.45225 | 14.15395 | 38620 ft | 475 kts | 140° |
| 2026-05-07 07:46 | 46.42791 | 14.18638 | 38726 ft | 476 kts | 140° |
| 2026-05-07 07:46 | 46.40353 | 14.21881 | 38851 ft | 476 kts | 140° |
| 2026-05-07 07:46 | 46.37908 | 14.25128 | 38959 ft | 477 kts | 140° |
| 2026-05-07 07:47 | 46.35456 | 14.28383 | 38990 ft | 479 kts | 140° |
| 2026-05-07 07:47 | 46.30529 | 14.34910 | 38991 ft | 480 kts | 140° |
| 2026-05-07 07:48 | 46.25604 | 14.41424 | 38986 ft | 480 kts | 140° |
| 2026-05-07 07:48 | 46.20675 | 14.47921 | 38987 ft | 479 kts | 141° |
| 2026-05-07 07:49 | 46.15742 | 14.54400 | 38989 ft | 479 kts | 141° |
| 2026-05-07 07:49 | 46.10803 | 14.60873 | 38985 ft | 479 kts | 141° |
| 2026-05-07 07:50 | 46.05903 | 14.67286 | 38992 ft | 479 kts | 141° |
| 2026-05-07 07:50 | 46.00967 | 14.73730 | 38992 ft | 478 kts | 141° |
| 2026-05-07 07:51 | 45.96026 | 14.80164 | 38991 ft | 479 kts | 141° |
| 2026-05-07 07:51 | 45.91090 | 14.86570 | 38986 ft | 479 kts | 141° |
| 2026-05-07 07:52 | 45.86148 | 14.92970 | 39000 ft | 478 kts | 141° |
| 2026-05-07 07:52 | 45.81202 | 14.99357 | 38993 ft | 478 kts | 141° |
| 2026-05-07 07:53 | 45.76284 | 15.05695 | 38998 ft | 478 kts | 141° |
| 2026-05-07 07:53 | 45.71331 | 15.12061 | 39000 ft | 477 kts | 141° |
| 2026-05-07 07:54 | 45.66382 | 15.18408 | 39007 ft | 477 kts | 141° |
| 2026-05-07 07:54 | 45.61433 | 15.24734 | 38994 ft | 478 kts | 141° |
| 2026-05-07 07:55 | 45.56479 | 15.31057 | 39002 ft | 477 kts | 141° |
| 2026-05-07 07:55 | 45.51535 | 15.37391 | 38993 ft | 477 kts | 141° |
| 2026-05-07 07:56 | 45.46601 | 15.43717 | 39008 ft | 477 kts | 141° |
| 2026-05-07 07:56 | 45.41696 | 15.49985 | 39004 ft | 477 kts | 141° |
| 2026-05-07 07:57 | 45.36747 | 15.56287 | 38996 ft | 476 kts | 141° |
| 2026-05-07 07:57 | 45.31805 | 15.62564 | 39018 ft | 477 kts | 141° |
| 2026-05-07 07:58 | 45.26852 | 15.68838 | 39015 ft | 477 kts | 141° |
| 2026-05-07 07:58 | 45.21901 | 15.75097 | 39025 ft | 477 kts | 141° |
| 2026-05-07 07:59 | 45.16937 | 15.81354 | 39004 ft | 477 kts | 141° |
| 2026-05-07 07:59 | 45.11976 | 15.87596 | 39013 ft | 477 kts | 141° |
| 2026-05-07 08:00 | 45.07018 | 15.93820 | 39011 ft | 477 kts | 141° |
| 2026-05-07 08:00 | 45.02081 | 16.00003 | 39013 ft | 477 kts | 141° |
| 2026-05-07 08:01 | 44.97106 | 16.06216 | 39016 ft | 477 kts | 141° |
| 2026-05-07 08:01 | 44.92135 | 16.12406 | 39011 ft | 476 kts | 141° |
| 2026-05-07 08:02 | 44.87165 | 16.18582 | 39027 ft | 476 kts | 141° |
| 2026-05-07 08:02 | 44.82194 | 16.24746 | 39028 ft | 476 kts | 141° |
| 2026-05-07 08:03 | 44.77217 | 16.30902 | 39026 ft | 476 kts | 141° |
| 2026-05-07 08:03 | 44.72268 | 16.37011 | 39027 ft | 476 kts | 141° |
| 2026-05-07 08:04 | 44.67280 | 16.43152 | 39027 ft | 476 kts | 141° |
| 2026-05-07 08:04 | 44.62295 | 16.49276 | 39029 ft | 476 kts | 141° |
| 2026-05-07 08:05 | 44.57303 | 16.55392 | 39028 ft | 476 kts | 141° |
| 2026-05-07 08:05 | 44.52308 | 16.61498 | 39028 ft | 477 kts | 141° |
| 2026-05-07 08:06 | 44.47342 | 16.67554 | 39026 ft | 476 kts | 141° |
| 2026-05-07 08:06 | 44.42344 | 16.73635 | 39034 ft | 475 kts | 141° |
| 2026-05-07 08:07 | 44.37347 | 16.79703 | 39037 ft | 476 kts | 141° |
| 2026-05-07 08:07 | 44.32316 | 16.85792 | 39037 ft | 476 kts | 141° |
| 2026-05-07 08:08 | 44.27315 | 16.91830 | 39037 ft | 475 kts | 141° |
| 2026-05-07 08:08 | 44.22336 | 16.97828 | 39045 ft | 475 kts | 141° |
| 2026-05-07 08:09 | 44.17326 | 17.03854 | 39046 ft | 475 kts | 141° |
| 2026-05-07 08:09 | 44.12327 | 17.09849 | 39046 ft | 475 kts | 141° |
| 2026-05-07 08:10 | 44.07346 | 17.15812 | 39044 ft | 475 kts | 142° |
| 2026-05-07 08:10 | 44.02330 | 17.21804 | 39054 ft | 474 kts | 142° |
| 2026-05-07 08:11 | 43.97321 | 17.27771 | 39054 ft | 475 kts | 141° |
| 2026-05-07 08:11 | 43.92303 | 17.33735 | 39057 ft | 475 kts | 141° |
| 2026-05-07 08:12 | 43.87279 | 17.39693 | 39062 ft | 475 kts | 141° |
| 2026-05-07 08:12 | 43.82283 | 17.45608 | 39065 ft | 475 kts | 142° |
| 2026-05-07 08:13 | 43.77255 | 17.51544 | 39073 ft | 474 kts | 141° |
| 2026-05-07 08:13 | 43.71909 | 17.56854 | 39076 ft | 472 kts | 148° |
| 2026-05-07 08:14 | 43.66396 | 17.61798 | 39080 ft | 472 kts | 149° |
| 2026-05-07 08:14 | 43.60864 | 17.66672 | 39082 ft | 472 kts | 149° |
| 2026-05-07 08:15 | 43.55332 | 17.71541 | 39086 ft | 472 kts | 149° |
| 2026-05-07 08:15 | 43.49794 | 17.76416 | 39088 ft | 472 kts | 149° |
| 2026-05-07 08:16 | 43.44264 | 17.81287 | 39091 ft | 471 kts | 149° |
| 2026-05-07 08:16 | 43.38730 | 17.86151 | 39101 ft | 472 kts | 149° |
| 2026-05-07 08:17 | 43.33195 | 17.91003 | 39101 ft | 472 kts | 149° |
| 2026-05-07 08:17 | 43.27676 | 17.95830 | 39100 ft | 472 kts | 149° |
| 2026-05-07 08:18 | 43.22134 | 18.00664 | 39101 ft | 472 kts | 149° |
| 2026-05-07 08:18 | 43.16583 | 18.05497 | 39100 ft | 472 kts | 149° |
| 2026-05-07 08:19 | 43.11032 | 18.10321 | 39099 ft | 473 kts | 149° |
| 2026-05-07 08:19 | 43.05473 | 18.15142 | 39100 ft | 473 kts | 149° |
| 2026-05-07 08:20 | 42.99915 | 18.19949 | 39100 ft | 473 kts | 149° |
| 2026-05-07 08:20 | 42.94350 | 18.24750 | 39100 ft | 473 kts | 149° |
| 2026-05-07 08:21 | 42.88782 | 18.29547 | 39101 ft | 473 kts | 149° |
| 2026-05-07 08:21 | 42.83208 | 18.34341 | 39107 ft | 474 kts | 150° |
| 2026-05-07 08:22 | 42.77627 | 18.39127 | 39109 ft | 474 kts | 150° |
| 2026-05-07 08:22 | 42.72046 | 18.43902 | 39110 ft | 474 kts | 150° |
| 2026-05-07 08:23 | 42.66467 | 18.48667 | 39109 ft | 474 kts | 150° |
| 2026-05-07 08:23 | 42.60874 | 18.53431 | 39109 ft | 474 kts | 150° |
| 2026-05-07 08:24 | 42.55289 | 18.58181 | 39115 ft | 474 kts | 150° |
| 2026-05-07 08:24 | 42.49725 | 18.62901 | 39118 ft | 474 kts | 150° |
| 2026-05-07 08:25 | 42.44130 | 18.67637 | 39126 ft | 474 kts | 150° |
| 2026-05-07 08:25 | 42.38529 | 18.72368 | 39132 ft | 474 kts | 150° |
| 2026-05-07 08:26 | 42.30126 | 18.79448 | 39129 ft | 475 kts | 150° |
| 2026-05-07 08:26 | 42.24521 | 18.84159 | 39136 ft | 475 kts | 150° |
| 2026-05-07 08:27 | 42.18907 | 18.88868 | 39132 ft | 475 kts | 150° |
| 2026-05-07 08:27 | 42.13292 | 18.93569 | 39132 ft | 475 kts | 150° |
| 2026-05-07 08:28 | 42.07673 | 18.98261 | 39138 ft | 475 kts | 150° |
| 2026-05-07 08:28 | 42.02086 | 19.02914 | 39141 ft | 475 kts | 150° |
| 2026-05-07 08:29 | 41.96457 | 19.07597 | 39148 ft | 476 kts | 150° |
| 2026-05-07 08:29 | 41.90809 | 19.12282 | 39132 ft | 477 kts | 150° |
| 2026-05-07 08:30 | 41.86071 | 19.16204 | 39136 ft | 478 kts | 150° |
| 2026-05-07 08:30 | 41.80411 | 19.20882 | 39142 ft | 478 kts | 150° |
| 2026-05-07 08:31 | 41.74785 | 19.25525 | 39141 ft | 478 kts | 150° |
| 2026-05-07 08:31 | 41.69119 | 19.30189 | 39140 ft | 478 kts | 150° |
| 2026-05-07 08:32 | 41.63448 | 19.34846 | 39138 ft | 479 kts | 150° |
| 2026-05-07 08:32 | 41.57770 | 19.39499 | 39141 ft | 479 kts | 150° |
| 2026-05-07 08:33 | 41.52088 | 19.44144 | 39135 ft | 479 kts | 150° |
| 2026-05-07 08:33 | 41.46403 | 19.48786 | 39128 ft | 479 kts | 150° |
| 2026-05-07 08:34 | 41.40716 | 19.53420 | 39127 ft | 479 kts | 150° |
| 2026-05-07 08:34 | 41.35028 | 19.58044 | 39128 ft | 479 kts | 150° |
| 2026-05-07 08:35 | 41.29331 | 19.62664 | 39128 ft | 480 kts | 150° |
| 2026-05-07 08:35 | 41.23629 | 19.67281 | 39127 ft | 480 kts | 150° |
| 2026-05-07 08:36 | 41.17926 | 19.71886 | 39128 ft | 480 kts | 150° |
| 2026-05-07 08:36 | 41.12213 | 19.76492 | 39141 ft | 481 kts | 151° |
| 2026-05-07 08:37 | 41.07456 | 19.80323 | 39141 ft | 481 kts | 151° |
| 2026-05-07 08:37 | 41.00791 | 19.85675 | 39137 ft | 482 kts | 151° |
| 2026-05-07 08:38 | 40.95050 | 19.90276 | 39148 ft | 482 kts | 151° |
| 2026-05-07 08:38 | 40.89305 | 19.94870 | 39150 ft | 483 kts | 151° |
| 2026-05-07 08:39 | 40.83538 | 19.99470 | 39158 ft | 484 kts | 151° |
| 2026-05-07 08:39 | 40.77769 | 20.04062 | 39165 ft | 485 kts | 151° |
| 2026-05-07 08:40 | 40.71981 | 20.08664 | 39166 ft | 486 kts | 151° |
| 2026-05-07 08:40 | 40.66222 | 20.13232 | 39164 ft | 486 kts | 151° |
| 2026-05-07 08:41 | 40.60418 | 20.17824 | 39173 ft | 487 kts | 151° |
| 2026-05-07 08:41 | 40.54603 | 20.22413 | 39165 ft | 487 kts | 151° |
| 2026-05-07 08:42 | 40.48786 | 20.26998 | 39166 ft | 488 kts | 151° |
| 2026-05-07 08:42 | 40.42959 | 20.31582 | 39164 ft | 488 kts | 151° |
| 2026-05-07 08:43 | 40.37131 | 20.36155 | 39165 ft | 488 kts | 151° |
| 2026-05-07 08:43 | 40.31301 | 20.40724 | 39155 ft | 488 kts | 151° |
| 2026-05-07 08:44 | 40.25467 | 20.45286 | 39158 ft | 488 kts | 152° |
| 2026-05-07 08:44 | 40.19635 | 20.49834 | 39153 ft | 488 kts | 152° |
| 2026-05-07 08:45 | 40.13835 | 20.54349 | 39150 ft | 488 kts | 152° |
| 2026-05-07 08:45 | 40.07993 | 20.58889 | 39157 ft | 488 kts | 152° |
| 2026-05-07 08:46 | 40.02067 | 20.63204 | 39152 ft | 487 kts | 155° |
| 2026-05-07 08:46 | 39.96011 | 20.67144 | 39152 ft | 487 kts | 156° |
| 2026-05-07 08:47 | 39.89919 | 20.71099 | 39153 ft | 490 kts | 156° |
| 2026-05-07 08:47 | 39.83858 | 20.75104 | 39152 ft | 491 kts | 156° |
| 2026-05-07 08:48 | 39.77768 | 20.79158 | 39156 ft | 492 kts | 155° |
| 2026-05-07 08:48 | 39.71682 | 20.83209 | 39157 ft | 491 kts | 155° |
| 2026-05-07 08:49 | 39.65584 | 20.87256 | 39155 ft | 493 kts | 156° |
| 2026-05-07 08:49 | 39.59477 | 20.91296 | 39158 ft | 493 kts | 156° |
| 2026-05-07 08:50 | 39.53360 | 20.95335 | 39153 ft | 493 kts | 156° |
| 2026-05-07 08:50 | 39.47243 | 20.99363 | 39159 ft | 493 kts | 156° |
| 2026-05-07 08:51 | 39.41117 | 21.03389 | 39158 ft | 494 kts | 156° |
| 2026-05-07 08:51 | 39.34987 | 21.07419 | 39157 ft | 494 kts | 156° |
| 2026-05-07 08:52 | 39.28854 | 21.11441 | 39145 ft | 495 kts | 156° |
| 2026-05-07 08:52 | 39.22706 | 21.15454 | 39146 ft | 496 kts | 156° |
| 2026-05-07 08:53 | 39.16536 | 21.19478 | 39152 ft | 497 kts | 156° |
| 2026-05-07 08:53 | 39.10404 | 21.23469 | 39146 ft | 497 kts | 156° |
| 2026-05-07 08:54 | 39.04235 | 21.27484 | 39142 ft | 498 kts | 156° |
| 2026-05-07 08:54 | 38.98042 | 21.31509 | 39137 ft | 498 kts | 156° |
| 2026-05-07 08:55 | 38.91853 | 21.35516 | 39132 ft | 499 kts | 156° |
| 2026-05-07 08:55 | 38.85652 | 21.39521 | 39141 ft | 499 kts | 156° |
| 2026-05-07 08:56 | 38.79438 | 21.43526 | 39130 ft | 501 kts | 157° |
| 2026-05-07 08:56 | 38.73208 | 21.47531 | 39128 ft | 502 kts | 157° |
| 2026-05-07 08:57 | 38.66963 | 21.51582 | 39128 ft | 503 kts | 156° |
| 2026-05-07 08:57 | 38.60752 | 21.55717 | 39130 ft | 504 kts | 156° |
| 2026-05-07 08:58 | 38.54514 | 21.59869 | 39129 ft | 504 kts | 156° |
| 2026-05-07 08:58 | 38.48285 | 21.64001 | 39127 ft | 505 kts | 156° |
| 2026-05-07 08:59 | 38.42033 | 21.68134 | 39130 ft | 506 kts | 156° |
| 2026-05-07 08:59 | 38.35810 | 21.72228 | 39128 ft | 507 kts | 156° |
| 2026-05-07 09:00 | 38.29520 | 21.76343 | 39127 ft | 508 kts | 156° |
| 2026-05-07 09:00 | 38.23220 | 21.80476 | 39128 ft | 509 kts | 156° |
| 2026-05-07 09:01 | 38.16904 | 21.84609 | 39127 ft | 511 kts | 157° |
| 2026-05-07 09:01 | 38.10573 | 21.88733 | 39129 ft | 512 kts | 156° |
| 2026-05-07 09:02 | 38.04287 | 21.92839 | 39125 ft | 512 kts | 156° |
| 2026-05-07 09:02 | 37.97963 | 21.96949 | 39127 ft | 510 kts | 157° |
| 2026-05-07 09:03 | 37.91643 | 22.01062 | 39130 ft | 511 kts | 156° |
| 2026-05-07 09:03 | 37.85302 | 22.05163 | 39128 ft | 511 kts | 157° |
| 2026-05-07 09:04 | 37.78951 | 22.09257 | 39128 ft | 513 kts | 157° |
| 2026-05-07 09:04 | 37.72598 | 22.13342 | 39132 ft | 512 kts | 156° |